createdAt,value
2022-09-21T00:01:31.959Z,99706.69
2022-09-21T00:04:03.296Z,99706.93
2022-09-21T00:06:33.876Z,99707.91
2022-09-21T00:09:05.223Z,99706.62
2022-09-21T00:11:34.200Z,99711.97
2022-09-21T00:14:07.425Z,99707.67
2022-09-21T00:16:35.686Z,99703.89
2022-09-21T00:19:04.693Z,99704.17
2022-09-21T00:21:34.418Z,99708.48
2022-09-21T00:24:03.268Z,99710.31
2022-09-21T00:26:32.172Z,99708.95
2022-09-21T00:29:02.923Z,99710.61
2022-09-21T00:31:32.037Z,99711.58
2022-09-21T00:34:01.131Z,99709.67
2022-09-21T00:36:29.606Z,99708.81
2022-09-21T00:39:01.043Z,99708.48
2022-09-21T00:41:31.788Z,99713.27
2022-09-21T00:44:18.313Z,99714.33
2022-09-21T00:46:49.424Z,99719.30
2022-09-21T00:49:17.986Z,99720.55
2022-09-21T00:51:47.594Z,99717.79
2022-09-21T00:54:26.274Z,99722.00
2022-09-21T00:56:56.251Z,99722.91
2022-09-21T00:59:29.366Z,99724.34
2022-09-21T01:01:59.708Z,99724.23
2022-09-21T01:04:28.503Z,99725.50
2022-09-21T01:06:58.246Z,99725.54
2022-09-21T01:09:27.376Z,99724.72
2022-09-21T01:12:05.529Z,99726.65
2022-09-21T01:14:54.408Z,99728.60
2022-09-21T01:17:45.155Z,99730.06
2022-09-21T01:20:37.581Z,99726.08
2022-09-21T01:23:25.809Z,99726.45
2022-09-21T01:26:21.064Z,99728.20
2022-09-21T01:29:17.009Z,99730.51
2022-09-21T01:32:13.862Z,99730.54
2022-09-21T01:35:06.906Z,99733.16
2022-09-21T01:37:45.508Z,99738.10
2022-09-21T01:40:19.704Z,99743.42
2022-09-21T01:42:51.337Z,99745.91
2022-09-21T01:45:26.661Z,99748.90
2022-09-21T01:47:57.561Z,99745.45
2022-09-21T01:50:28.981Z,99745.85
2022-09-21T01:53:13.923Z,99749.88
2022-09-21T01:55:50.454Z,99750.40
2022-09-21T01:58:30.287Z,99752.00
2022-09-21T02:00:58.382Z,99752.70
2022-09-21T02:03:49.253Z,99755.30
2022-09-21T02:06:19.281Z,99756.29
2022-09-21T02:08:48.559Z,99756.61
2022-09-21T02:11:16.318Z,99758.34
2022-09-21T02:13:46.942Z,99759.35
2022-09-21T02:16:31.120Z,99757.19
2022-09-21T02:19:27.809Z,99756.41
2022-09-21T02:22:03.900Z,99754.42
2022-09-21T02:24:44.898Z,99758.77
2022-09-21T02:27:36.113Z,99757.48
2022-09-21T02:30:19.363Z,99759.06
2022-09-21T02:33:03.330Z,99763.61
2022-09-21T02:36:12.837Z,99766.54
2022-09-21T02:38:58.534Z,99768.52
2022-09-21T02:41:36.782Z,99770.70
2022-09-21T02:44:16.923Z,99768.71
2022-09-21T02:47:14.561Z,99767.77
2022-09-21T02:49:51.483Z,99772.08
2022-09-21T02:52:21.564Z,99774.63
2022-09-21T02:54:53.476Z,99773.48
2022-09-21T02:57:23.874Z,99775.46
2022-09-21T02:59:52.383Z,99778.67
2022-09-21T03:02:20.154Z,99779.77
2022-09-21T03:04:49.873Z,99785.63
2022-09-21T03:07:18.465Z,99787.48
2022-09-21T03:09:46.630Z,99788.67
2022-09-21T03:12:14.367Z,99794.73
2022-09-21T03:14:42.206Z,99798.88
2022-09-21T03:17:11.234Z,99797.41
2022-09-21T03:19:38.967Z,99799.86
2022-09-21T03:22:06.784Z,99799.16
2022-09-21T03:24:46.966Z,99797.42
2022-09-21T03:27:17.352Z,99799.92
2022-09-21T03:29:45.412Z,99803.80
2022-09-21T03:32:14.635Z,99804.50
2022-09-21T03:34:42.945Z,99806.05
2022-09-21T03:37:11.165Z,99805.27
2022-09-21T03:39:39.053Z,99807.27
2022-09-21T03:42:07.101Z,99810.67
2022-09-21T03:44:37.341Z,99807.41
2022-09-21T03:47:08.032Z,99810.97
2022-09-21T03:49:35.854Z,99806.34
2022-09-21T03:52:03.720Z,99807.64
2022-09-21T03:54:31.530Z,99808.17
2022-09-21T03:56:59.794Z,99808.63
2022-09-21T03:59:27.970Z,99810.98
2022-09-21T04:01:55.711Z,99811.55
2022-09-21T04:04:23.957Z,99810.73
2022-09-21T04:06:51.943Z,99806.27
2022-09-21T04:09:19.697Z,99808.38
2022-09-21T04:11:48.380Z,99808.71
2022-09-21T04:14:16.091Z,99812.70
2022-09-21T04:16:43.816Z,99809.36
2022-09-21T04:19:12.599Z,99812.75
2022-09-21T04:21:40.325Z,99810.39
2022-09-21T04:24:08.071Z,99808.41
2022-09-21T04:26:36.587Z,99807.14
2022-09-21T04:29:06.658Z,99809.38
2022-09-21T04:31:35.715Z,99810.93
2022-09-21T04:34:03.478Z,99808.98
2022-09-21T04:36:36.423Z,99806.61
2022-09-21T04:39:06.267Z,99811.98
2022-09-21T04:41:34.855Z,99816.63
2022-09-21T04:44:04.809Z,99820.73
2022-09-21T04:46:32.697Z,99819.19
2022-09-21T04:49:00.525Z,99825.16
2022-09-21T04:51:28.515Z,99822.55
2022-09-21T04:53:56.737Z,99827.03
2022-09-21T04:56:27.585Z,99826.88
2022-09-21T04:58:55.586Z,99829.74
2022-09-21T05:01:23.951Z,99830.75
2022-09-21T05:03:52.192Z,99832.98
2022-09-21T05:06:20.132Z,99839.17
2022-09-21T05:09:07.470Z,99842.77
2022-09-21T05:11:36.092Z,99840.95
2022-09-21T05:14:03.898Z,99837.55
2022-09-21T05:16:31.663Z,99836.70
2022-09-21T05:18:59.481Z,99840.05
2022-09-21T05:21:28.016Z,99843.71
2022-09-21T05:23:57.653Z,99845.63
2022-09-21T05:26:26.007Z,99843.48
2022-09-21T05:28:54.125Z,99846.29
2022-09-21T05:31:43.706Z,99850.57
2022-09-21T05:34:36.906Z,99851.75
2022-09-21T05:37:38.590Z,99853.25
2022-09-21T05:40:07.829Z,99856.94
2022-09-21T05:42:36.051Z,99859.09
2022-09-21T05:45:06.177Z,99861.81
2022-09-21T05:47:42.025Z,99860.89
2022-09-21T05:50:35.537Z,99860.61
2022-09-21T05:53:21.913Z,99862.31
2022-09-21T05:55:58.573Z,99865.09
2022-09-21T05:58:45.655Z,99866.38
2022-09-21T06:01:38.293Z,99866.52
2022-09-21T06:04:11.497Z,99865.17
2022-09-21T06:06:39.643Z,99870.86
2022-09-21T06:09:07.502Z,99872.44
2022-09-21T06:11:35.730Z,99873.23
2022-09-21T06:14:03.761Z,99875.55
2022-09-21T06:16:42.921Z,99874.13
2022-09-21T06:19:12.256Z,99874.04
2022-09-21T06:21:40.090Z,99874.22
2022-09-21T06:24:08.047Z,99874.42
2022-09-21T06:26:36.126Z,99877.94
2022-09-21T06:29:06.598Z,99879.54
2022-09-21T06:31:34.920Z,99882.07
2022-09-21T06:34:03.017Z,99882.36
2022-09-21T06:36:31.285Z,99880.89
2022-09-21T06:38:59.138Z,99880.33
2022-09-21T06:41:28.638Z,99880.17
2022-09-21T06:43:57.286Z,99882.27
2022-09-21T06:46:25.544Z,99881.34
2022-09-21T06:48:54.808Z,99881.48
2022-09-21T06:51:24.059Z,99881.68
2022-09-21T06:53:58.038Z,99884.59
2022-09-21T06:56:26.850Z,99885.64
2022-09-21T06:58:55.518Z,99886.27
2022-09-21T07:01:24.772Z,99891.05
2022-09-21T07:03:54.210Z,99890.63
2022-09-21T07:06:22.500Z,99892.02
2022-09-21T07:11:42.010Z,99892.23
2022-09-21T07:14:09.864Z,99894.60
2022-09-21T07:16:37.742Z,99894.83
2022-09-21T07:19:12.841Z,99897.79
2022-09-21T07:21:41.244Z,99902.58
2022-09-21T07:24:12.506Z,99906.42
2022-09-21T07:26:40.835Z,99907.56
2022-09-21T07:29:08.738Z,99904.98
2022-09-21T07:31:37.069Z,99910.23
2022-09-21T07:34:04.792Z,99907.47
2022-09-21T07:36:32.610Z,99909.77
2022-09-21T07:39:00.372Z,99906.31
2022-09-21T07:41:28.146Z,99905.64
2022-09-21T07:43:55.920Z,99906.46
2022-09-21T07:46:25.280Z,99913.06
2022-09-21T07:48:54.862Z,99910.52
2022-09-21T07:51:23.998Z,99912.91
2022-09-21T07:53:57.325Z,99911.91
2022-09-21T07:56:25.953Z,99910.70
2022-09-21T07:59:05.970Z,99914.10
2022-09-21T08:01:40.541Z,99914.83
2022-09-21T08:04:10.339Z,99912.84
2022-09-21T08:06:40.485Z,99920.02
2022-09-21T08:09:08.872Z,99926.30
2022-09-21T08:11:40.001Z,99932.29
2022-09-21T08:14:08.111Z,99927.30
2022-09-21T08:16:38.451Z,99928.80
2022-09-21T08:19:06.232Z,99930.43
2022-09-21T08:21:34.608Z,99925.95
2022-09-21T08:24:11.095Z,99926.11
2022-09-21T08:26:39.855Z,99924.98
2022-09-21T08:29:07.777Z,99930.13
2022-09-21T08:31:35.769Z,99931.30
2022-09-21T08:34:03.957Z,99928.09
2022-09-21T08:36:33.311Z,99926.52
2022-09-21T08:39:01.078Z,99924.55
2022-09-21T08:42:09.660Z,99924.72
2022-09-21T08:44:55.987Z,99935.35
2022-09-21T08:47:33.426Z,99930.24
2022-09-21T08:50:04.259Z,99927.73
2022-09-21T08:52:33.671Z,99930.66
2022-09-21T08:55:18.849Z,99931.17
2022-09-21T08:57:47.035Z,99927.73
2022-09-21T09:00:19.885Z,99928.05
2022-09-21T09:03:16.482Z,99928.88
2022-09-21T09:05:55.372Z,99930.73
2022-09-21T09:08:44.244Z,99933.05
2022-09-21T09:11:28.269Z,99934.33
2022-09-21T09:14:26.097Z,99934.11
2022-09-21T09:17:09.993Z,99937.59
2022-09-21T09:19:49.161Z,99935.45
2022-09-21T09:22:29.742Z,99935.79
2022-09-21T09:25:03.402Z,99936.92
2022-09-21T09:27:41.928Z,99938.75
2022-09-21T09:30:27.106Z,99941.36
2022-09-21T09:33:08.765Z,99931.33
2022-09-21T09:35:55.139Z,99931.29
2022-09-21T09:38:40.885Z,99935.19
2022-09-21T09:41:25.434Z,99936.00
2022-09-21T09:44:02.801Z,99936.88
2022-09-21T09:46:57.975Z,99940.88
2022-09-21T09:49:39.120Z,99944.04
2022-09-21T09:52:12.405Z,99938.98
2022-09-21T09:54:40.844Z,99936.38
2022-09-21T09:57:09.963Z,99936.49
2022-09-21T09:59:43.571Z,99934.10
2022-09-21T10:02:22.211Z,99938.38
2022-09-21T10:05:05.903Z,99934.61
2022-09-21T10:07:43.510Z,99938.52
2022-09-21T10:10:33.232Z,99934.29
2022-09-21T10:13:09.917Z,99934.02
2022-09-21T10:15:45.530Z,99929.09
2022-09-21T10:18:23.343Z,99928.33
2022-09-21T10:21:09.345Z,99932.38
2022-09-21T10:23:38.847Z,99931.94
2022-09-21T10:26:12.823Z,99928.67
2022-09-21T10:29:19.261Z,99929.96
2022-09-21T10:32:17.912Z,99925.68
2022-09-21T10:35:04.716Z,99927.70
2022-09-21T10:37:39.162Z,99927.13
2022-09-21T10:40:25.992Z,99927.23
2022-09-21T10:42:58.642Z,99927.31
2022-09-21T10:45:37.302Z,99929.11
2022-09-21T10:48:18.786Z,99930.91
2022-09-21T10:50:49.590Z,99926.95
2022-09-21T10:53:23.683Z,99928.16
2022-09-21T10:56:15.634Z,99926.05
2022-09-21T10:59:14.970Z,99918.59
2022-09-21T11:01:48.781Z,99921.27
2022-09-21T11:04:28.462Z,99916.66
2022-09-21T11:07:05.278Z,99912.73
2022-09-21T11:10:00.493Z,99909.27
2022-09-21T11:12:53.457Z,99903.81
2022-09-21T11:15:47.264Z,99905.32
2022-09-21T11:18:42.170Z,99905.95
2022-09-21T11:21:30.312Z,99900.66
2022-09-21T11:24:21.544Z,99891.05
2022-09-21T11:27:04.134Z,99882.23
2022-09-21T11:30:11.425Z,99884.50
2022-09-21T11:33:19.544Z,99884.18
2022-09-21T11:36:13.685Z,99882.06
2022-09-21T11:38:53.095Z,99877.36
2022-09-21T11:41:46.115Z,99886.08
2022-09-21T11:44:20.115Z,99889.48
2022-09-21T11:47:07.294Z,99894.83
2022-09-21T11:50:31.618Z,99891.26
2022-09-21T11:53:15.543Z,99890.67
2022-09-21T11:56:11.787Z,99888.98
2022-09-21T11:59:07.136Z,99880.78
2022-09-21T12:02:02.215Z,99882.26
2022-09-21T12:04:58.833Z,99878.71
2022-09-21T12:08:14.929Z,99875.41
2022-09-21T12:11:13.410Z,99871.96
2022-09-21T12:13:52.915Z,99868.27
2022-09-21T12:16:45.261Z,99868.39
2022-09-21T12:19:29.766Z,99864.32
2022-09-21T12:22:13.452Z,99861.92
2022-09-21T12:24:48.603Z,99866.79
2022-09-21T12:27:28.327Z,99860.10
2022-09-21T12:30:03.356Z,99860.36
2022-09-21T12:32:57.923Z,99856.50
2022-09-21T12:35:48.118Z,99858.33
2022-09-21T12:38:41.739Z,99861.77
2022-09-21T12:41:23.833Z,99861.93
2022-09-21T12:44:52.321Z,99865.52
2022-09-21T12:47:33.715Z,99860.46
2022-09-21T12:50:16.342Z,99864.07
2022-09-21T12:52:44.455Z,99863.47
2022-09-21T12:55:53.239Z,99858.89
2022-09-21T12:58:26.817Z,99862.39
2022-09-21T13:00:54.537Z,99859.91
2022-09-21T13:03:36.282Z,99857.28
2022-09-21T13:06:20.867Z,99854.84
2022-09-21T13:11:23.581Z,99850.06
2022-09-21T13:13:59.525Z,99847.35
2022-09-21T13:16:55.921Z,99845.98
2022-09-21T13:19:26.124Z,99845.64
2022-09-21T13:22:23.405Z,99851.34
2022-09-21T13:25:01.851Z,99848.55
2022-09-21T13:28:02.007Z,99839.15
2022-09-21T13:30:37.646Z,99829.10
2022-09-21T13:33:25.713Z,99826.93
2022-09-21T13:36:00.489Z,99836.04
2022-09-21T13:38:34.235Z,99835.00
2022-09-21T13:41:04.745Z,99836.23
2022-09-21T13:44:01.088Z,99829.02
2022-09-21T13:46:32.455Z,99830.23
2022-09-21T13:49:16.555Z,99832.80
2022-09-21T13:52:06.033Z,99829.79
2022-09-21T13:54:51.343Z,99825.52
2022-09-21T13:57:27.280Z,99825.22
2022-09-21T14:00:20.143Z,99819.25
2022-09-21T14:02:51.642Z,99817.11
2022-09-21T14:05:44.002Z,99818.89
2022-09-21T14:08:17.808Z,99824.06
2022-09-21T14:11:03.800Z,99828.56
2022-09-21T14:13:45.842Z,99823.80
2022-09-21T14:16:29.165Z,99822.33
2022-09-21T14:18:56.961Z,99821.73
2022-09-21T14:21:25.466Z,99826.00
2022-09-21T14:24:20.533Z,99825.84
2022-09-21T14:27:03.282Z,99827.17
2022-09-21T14:29:42.027Z,99832.72
2022-09-21T14:32:23.732Z,99829.28
2022-09-21T14:34:57.403Z,99825.42
2022-09-21T14:37:27.825Z,99825.18
2022-09-21T14:40:01.067Z,99822.66
2022-09-21T14:42:29.345Z,99820.02
2022-09-21T14:45:01.520Z,99821.24
2022-09-21T14:47:52.146Z,99815.48
2022-09-21T14:50:38.446Z,99813.70
2022-09-21T14:53:29.420Z,99813.43
2022-09-21T14:56:16.506Z,99816.19
2022-09-21T14:58:58.538Z,99814.52
2022-09-21T15:01:38.159Z,99820.79
2022-09-21T15:04:40.661Z,99816.77
2022-09-21T15:07:45.145Z,99817.01
2022-09-21T15:10:39.953Z,99813.11
2022-09-21T15:13:37.254Z,99817.77
2022-09-21T15:16:22.622Z,99824.02
2022-09-21T15:18:52.009Z,99826.54
2022-09-21T15:21:29.060Z,99823.88
2022-09-21T15:23:57.126Z,99827.59
2022-09-21T15:26:32.753Z,99824.45
2022-09-21T15:29:09.739Z,99829.83
2022-09-21T15:31:40.450Z,99823.91
2022-09-21T15:34:11.015Z,99819.98
2022-09-21T15:36:42.838Z,99819.03
2022-09-21T15:39:29.627Z,99825.09
2022-09-21T15:42:10.683Z,99825.84
2022-09-21T15:44:39.580Z,99823.59
2022-09-21T15:47:12.658Z,99823.83
2022-09-21T15:49:42.125Z,99827.17
2022-09-21T15:52:33.029Z,99824.30
2022-09-21T15:55:30.567Z,99827.60
2022-09-21T15:57:58.897Z,99825.74
2022-09-21T16:00:35.396Z,99826.00
2022-09-21T16:03:07.626Z,99831.66
2022-09-21T16:05:51.173Z,99831.77
2022-09-21T16:08:28.880Z,99828.00
2022-09-21T16:11:32.959Z,99832.52
2022-09-21T16:14:29.861Z,99834.02
2022-09-21T16:17:11.596Z,99839.73
2022-09-21T16:19:51.966Z,99833.83
2022-09-21T16:22:25.501Z,99838.23
2022-09-21T16:24:57.435Z,99839.54
2022-09-21T16:27:28.867Z,99840.18
2022-09-21T16:29:58.648Z,99846.08
2022-09-21T16:32:34.320Z,99850.69
2022-09-21T16:35:31.685Z,99855.02
2022-09-21T16:38:01.495Z,99850.77
2022-09-21T16:40:31.689Z,99853.02
2022-09-21T16:43:00.032Z,99856.70
2022-09-21T16:45:31.497Z,99856.22
2022-09-21T16:47:59.838Z,99853.59
2022-09-21T16:50:29.761Z,99855.14
2022-09-21T16:52:57.521Z,99858.60
2022-09-21T16:55:28.915Z,99858.48
2022-09-21T16:57:57.446Z,99863.15
2022-09-21T17:00:25.383Z,99864.17
2022-09-21T17:02:56.699Z,99862.33
2022-09-21T17:05:24.769Z,99866.79
2022-09-21T17:07:55.730Z,99868.45
2022-09-21T17:10:31.934Z,99871.72
2022-09-21T17:13:00.247Z,99874.61
2022-09-21T17:15:31.722Z,99874.00
2022-09-21T17:18:00.200Z,99873.38
2022-09-21T17:20:34.978Z,99877.17
2022-09-21T17:23:03.359Z,99873.83
2022-09-21T17:25:32.981Z,99878.12
2022-09-21T17:28:02.832Z,99873.58
2022-09-21T17:30:30.615Z,99879.09
2022-09-21T17:32:58.576Z,99885.95
2022-09-21T17:35:39.454Z,99885.48
2022-09-21T17:38:12.419Z,99886.05
2022-09-21T17:40:43.315Z,99891.20
2022-09-21T17:43:56.484Z,99895.30
2022-09-21T17:46:58.712Z,99896.46
2022-09-21T17:49:30.740Z,99894.42
2022-09-21T17:52:17.446Z,99896.73
2022-09-21T17:54:46.553Z,99895.39
2022-09-21T17:57:28.473Z,99896.01
2022-09-21T18:00:05.110Z,99896.59
2022-09-21T18:02:34.828Z,99898.04
2022-09-21T18:05:13.525Z,99900.15
2022-09-21T18:07:41.794Z,99902.95
2022-09-21T18:10:14.349Z,99906.63
2022-09-21T18:13:07.145Z,99906.41
2022-09-21T18:16:17.023Z,99909.73
2022-09-21T18:19:06.029Z,99910.96
2022-09-21T18:21:39.436Z,99911.09
2022-09-21T18:24:22.271Z,99907.66
2022-09-21T18:26:53.604Z,99910.41
2022-09-21T18:29:40.917Z,99908.54
2022-09-21T18:32:33.097Z,99908.27
2022-09-21T18:35:10.660Z,99912.67
2022-09-21T18:38:01.110Z,99912.65
2022-09-21T18:41:06.495Z,99911.41
2022-09-21T18:43:54.920Z,99913.78
2022-09-21T18:46:35.005Z,99915.05
2022-09-21T18:49:35.051Z,99913.82
2022-09-21T18:52:36.111Z,99918.20
2022-09-21T18:55:19.961Z,99921.81
2022-09-21T18:57:48.031Z,99923.38
2022-09-21T19:00:17.289Z,99924.92
2022-09-21T19:03:15.209Z,99927.20
2022-09-21T19:05:40.575Z,99926.80
2022-09-21T19:08:29.367Z,99927.66
2022-09-21T19:11:04.645Z,99927.65
2022-09-21T19:14:15.868Z,99923.96
2022-09-21T19:17:08.179Z,99921.55
2022-09-21T19:19:56.895Z,99918.53
2022-09-21T19:23:00.479Z,99917.94
2022-09-21T19:25:50.885Z,99916.98
2022-09-21T19:28:40.318Z,99919.34
2022-09-21T19:31:15.209Z,99918.89
2022-09-21T19:33:50.428Z,99924.14
2022-09-21T19:36:20.653Z,99921.48
2022-09-21T19:38:48.819Z,99918.98
2022-09-21T19:41:49.422Z,99920.80
2022-09-21T19:44:38.881Z,99918.62
2022-09-21T19:47:31.392Z,99919.09
2022-09-21T19:50:17.426Z,99916.23
2022-09-21T19:52:46.867Z,99917.14
2022-09-21T19:55:39.770Z,99918.09
2022-09-21T19:58:28.084Z,99917.45
2022-09-21T20:00:57.618Z,99917.73
2022-09-21T20:03:38.731Z,99920.81
2022-09-21T20:06:17.065Z,99917.95
2022-09-21T20:09:05.457Z,99912.40
2022-09-21T20:12:18.686Z,99912.81
2022-09-21T20:15:07.558Z,99915.10
2022-09-21T20:17:44.776Z,99917.48
2022-09-21T20:20:28.741Z,99915.75
2022-09-21T20:22:56.533Z,99918.20
2022-09-21T20:25:41.231Z,99916.96
2022-09-21T20:28:10.831Z,99916.08
2022-09-21T20:30:40.169Z,99922.38
2022-09-21T20:33:22.673Z,99916.66
2022-09-21T20:35:53.079Z,99916.05
2022-09-21T20:38:21.891Z,99917.96
2022-09-21T20:40:50.111Z,99918.55
2022-09-21T20:43:18.876Z,99917.44
2022-09-21T20:45:50.421Z,99920.03
2022-09-21T20:48:18.636Z,99921.66
2022-09-21T20:50:51.336Z,99922.41
2022-09-21T20:53:19.443Z,99921.04
2022-09-21T20:55:59.030Z,99919.67
2022-09-21T20:58:27.564Z,99920.20
2022-09-21T21:00:59.064Z,99922.12
2022-09-21T21:03:27.184Z,99916.58
2022-09-21T21:06:07.260Z,99915.13
2022-09-21T21:08:35.181Z,99914.63
2022-09-21T21:11:02.968Z,99910.84
2022-09-21T21:13:31.315Z,99915.14
2022-09-21T21:16:00.307Z,99913.72
2022-09-21T21:18:28.205Z,99911.47
2022-09-21T21:20:55.974Z,99909.52
2022-09-21T21:23:23.792Z,99909.84
2022-09-21T21:25:51.867Z,99911.64
2022-09-21T21:28:19.620Z,99912.39
2022-09-21T21:30:53.057Z,99909.92
2022-09-21T21:33:20.926Z,99906.00
2022-09-21T21:35:50.204Z,99904.38
2022-09-21T21:38:17.910Z,99903.86
2022-09-21T21:40:45.773Z,99900.33
2022-09-21T21:43:13.607Z,99901.36
2022-09-21T21:45:41.761Z,99903.42
2022-09-21T21:48:09.454Z,99900.80
2022-09-21T21:50:37.186Z,99899.75
2022-09-21T21:53:04.899Z,99905.03
2022-09-21T21:55:33.563Z,99902.48
2022-09-21T21:58:01.385Z,99895.05
2022-09-21T22:00:29.129Z,99895.92
2022-09-21T22:02:56.958Z,99896.94
2022-09-21T22:05:26.158Z,99892.29
2022-09-21T22:07:53.852Z,99887.14
2022-09-21T22:10:21.894Z,99879.70
2022-09-21T22:12:51.545Z,99880.11
2022-09-21T22:15:19.299Z,99882.00
2022-09-21T22:17:47.067Z,99876.69
2022-09-21T22:20:17.847Z,99872.79
2022-09-21T22:22:45.582Z,99872.13
2022-09-21T22:25:13.538Z,99868.66
2022-09-21T22:27:41.289Z,99863.91
2022-09-21T22:30:10.687Z,99865.14
2022-09-21T22:32:38.688Z,99864.84
2022-09-21T22:35:08.157Z,99862.27
2022-09-21T22:37:36.261Z,99863.54
2022-09-21T22:40:04.503Z,99857.02
2022-09-21T22:42:32.293Z,99855.63
2022-09-21T22:45:00.032Z,99852.97
2022-09-21T22:47:27.978Z,99852.21
2022-09-21T22:49:56.482Z,99847.38
2022-09-21T22:52:24.229Z,99851.33
2022-09-21T22:54:53.790Z,99849.63
2022-09-21T22:57:21.548Z,99849.19
2022-09-21T22:59:49.259Z,99850.89
2022-09-21T23:02:17.156Z,99853.62
2022-09-21T23:04:45.950Z,99857.29
2022-09-21T23:07:16.243Z,99860.73
2022-09-21T23:09:44.784Z,99856.97
2022-09-21T23:12:12.527Z,99853.02
2022-09-21T23:14:40.287Z,99854.42
2022-09-21T23:17:08.041Z,99855.67
2022-09-21T23:19:36.119Z,99852.39
2022-09-21T23:22:03.903Z,99856.11
2022-09-21T23:24:31.718Z,99856.80
2022-09-21T23:26:59.493Z,99854.02
2022-09-21T23:29:28.272Z,99858.23
2022-09-21T23:31:56.074Z,99860.16
2022-09-21T23:34:24.271Z,99861.71
2022-09-21T23:36:52.124Z,99862.26
2022-09-21T23:39:19.931Z,99860.73
2022-09-21T23:41:47.695Z,99860.89
2022-09-21T23:44:15.595Z,99866.17
2022-09-21T23:46:43.603Z,99868.33
2022-09-21T23:49:11.510Z,99870.64
2022-09-21T23:51:40.044Z,99870.48
2022-09-21T23:54:08.167Z,99870.21
2022-09-21T23:56:36.077Z,99870.29
2022-09-21T23:59:04.231Z,99870.20
